createdAt,value
2023-09-23T00:01:30.128Z,99585.44
2023-09-23T00:04:37.478Z,99587.53
2023-09-23T00:07:41.368Z,99578.34
2023-09-23T00:10:44.289Z,99566.28
2023-09-23T00:13:47.351Z,99589.50
2023-09-23T00:16:50.288Z,99597.09
2023-09-23T00:19:53.138Z,99607.75
2023-09-23T00:22:57.818Z,99606.19
2023-09-23T00:26:02.505Z,99596.00
2023-09-23T00:29:05.959Z,99590.66
2023-09-23T00:32:08.793Z,99572.97
2023-09-23T00:35:14.273Z,99571.22
2023-09-23T00:38:18.888Z,99541.78
2023-09-23T00:41:21.996Z,99549.22
2023-09-23T00:44:25.992Z,99550.63
2023-09-23T00:47:29.272Z,99553.44
2023-09-23T00:50:32.031Z,99567.56
2023-09-23T00:53:36.703Z,99587.50
2023-09-23T00:56:40.146Z,99580.91
2023-09-23T00:59:44.529Z,99595.28
2023-09-23T01:02:50.001Z,99598.88
2023-09-23T01:06:04.952Z,99600.38
2023-09-23T01:09:13.790Z,99590.31
2023-09-23T01:12:17.949Z,99585.09
2023-09-23T01:15:22.802Z,99588.09
2023-09-23T01:18:25.590Z,99599.44
2023-09-23T01:21:28.474Z,99646.81
2023-09-23T01:24:31.844Z,99679.69
2023-09-23T01:27:35.931Z,99663.13
2023-09-23T01:30:40.706Z,99655.25
2023-09-23T01:33:43.754Z,99649.69
2023-09-23T01:36:46.484Z,99637.53
2023-09-23T01:39:53.733Z,99639.84
2023-09-23T01:42:57.013Z,99644.72
2023-09-23T01:46:05.532Z,99641.69
2023-09-23T01:49:08.442Z,99643.78
2023-09-23T01:52:11.093Z,99633.13
2023-09-23T01:55:13.954Z,99643.06
2023-09-23T01:58:16.658Z,99649.44
2023-09-23T02:01:19.393Z,99655.06
2023-09-23T02:04:22.061Z,99664.78
2023-09-23T02:07:24.772Z,99672.50
2023-09-23T02:10:30.322Z,99664.75
2023-09-23T02:13:38.058Z,99665.69
2023-09-23T02:16:40.949Z,99659.88
2023-09-23T02:19:43.927Z,99662.53
2023-09-23T02:22:51.391Z,99667.28
2023-09-23T02:25:54.261Z,99679.06
2023-09-23T02:28:56.990Z,99662.88
2023-09-23T02:32:02.221Z,99656.25
2023-09-23T02:35:05.720Z,99655.78
2023-09-23T02:38:08.716Z,99657.84
2023-09-23T02:41:12.111Z,99668.75
2023-09-23T02:44:16.245Z,99681.87
2023-09-23T02:47:19.748Z,99687.19
2023-09-23T02:50:22.663Z,99701.69
2023-09-23T02:53:25.746Z,99713.47
2023-09-23T02:56:28.717Z,99721.09
2023-09-23T02:59:32.802Z,99736.03
2023-09-23T03:02:35.720Z,99717.63
2023-09-23T03:05:43.309Z,99704.09
2023-09-23T03:08:49.424Z,99713.34
2023-09-23T03:11:57.256Z,99708.69
2023-09-23T03:15:05.062Z,99712.00
2023-09-23T03:18:07.965Z,99710.69
2023-09-23T03:21:11.947Z,99712.16
2023-09-23T03:24:14.742Z,99716.09
2023-09-23T03:27:17.840Z,99741.56
2023-09-23T03:30:20.914Z,99741.41
2023-09-23T03:33:24.888Z,99716.69
2023-09-23T03:36:27.624Z,99733.00
2023-09-23T03:39:30.308Z,99738.53
2023-09-23T03:42:33.028Z,99741.63
2023-09-23T03:45:36.365Z,99708.41
2023-09-23T03:48:39.150Z,99693.63
2023-09-23T03:51:41.954Z,99715.88
2023-09-23T03:54:44.742Z,99732.47
2023-09-23T03:57:47.880Z,99720.22
2023-09-23T04:00:50.839Z,99731.34
2023-09-23T04:03:53.902Z,99734.44
2023-09-23T04:06:56.917Z,99741.72
2023-09-23T04:09:59.761Z,99729.09
2023-09-23T04:13:02.525Z,99734.84
2023-09-23T04:16:07.015Z,99735.28
2023-09-23T04:19:10.935Z,99731.81
2023-09-23T04:22:13.636Z,99744.78
2023-09-23T04:25:16.406Z,99755.03
2023-09-23T04:28:20.094Z,99751.63
2023-09-23T04:31:25.647Z,99747.47
2023-09-23T04:34:28.408Z,99744.00
2023-09-23T04:37:31.266Z,99746.22
2023-09-23T04:40:33.907Z,99741.28
2023-09-23T04:43:37.050Z,99734.75
2023-09-23T04:46:39.829Z,99759.84
2023-09-23T04:49:42.730Z,99771.50
2023-09-23T04:52:45.721Z,99775.72
2023-09-23T04:55:48.537Z,99784.12
2023-09-23T04:58:52.334Z,99794.19
2023-09-23T05:01:55.452Z,99804.00
2023-09-23T05:04:58.309Z,99806.06
2023-09-23T05:08:01.280Z,99803.72
2023-09-23T05:11:04.701Z,99818.41
2023-09-23T05:14:07.662Z,99822.50
2023-09-23T05:17:15.471Z,99832.09
2023-09-23T05:20:21.686Z,99830.41
2023-09-23T05:23:24.880Z,99839.41
2023-09-23T05:26:27.716Z,99834.91
2023-09-23T05:29:30.553Z,99841.41
2023-09-23T05:32:33.310Z,99843.25
2023-09-23T05:35:36.944Z,99850.22
2023-09-23T05:38:39.960Z,99869.41
2023-09-23T05:41:43.255Z,99871.63
2023-09-23T05:44:48.047Z,99887.37
2023-09-23T05:47:50.866Z,99892.91
2023-09-23T05:51:04.581Z,99901.09
2023-09-23T05:54:09.656Z,99900.66
2023-09-23T05:57:12.351Z,99911.91
2023-09-23T06:00:17.107Z,99923.34
2023-09-23T06:03:20.109Z,99916.63
2023-09-23T06:06:23.214Z,99914.94
2023-09-23T06:09:25.983Z,99919.44
2023-09-23T06:12:32.428Z,99920.47
2023-09-23T06:15:35.425Z,99925.97
2023-09-23T06:18:38.146Z,99929.66
2023-09-23T06:21:40.959Z,99933.75
2023-09-23T06:24:43.791Z,99937.63
2023-09-23T06:27:47.214Z,99939.87
2023-09-23T06:30:50.235Z,99944.56
2023-09-23T06:33:53.046Z,99933.13
2023-09-23T06:36:55.846Z,99943.56
2023-09-23T06:39:58.598Z,99948.66
2023-09-23T06:43:01.358Z,99949.50
2023-09-23T06:46:04.633Z,99953.19
2023-09-23T06:49:07.355Z,99964.63
2023-09-23T06:52:10.106Z,99971.75
2023-09-23T06:55:12.967Z,99967.66
2023-09-23T06:58:15.950Z,99976.28
2023-09-23T07:01:18.889Z,99985.69
2023-09-23T07:04:23.102Z,99999.00
2023-09-23T07:07:29.809Z,100010.88
2023-09-23T07:10:40.539Z,100030.34
2023-09-23T07:13:43.422Z,100032.00
2023-09-23T07:16:46.403Z,100034.63
2023-09-23T07:19:49.489Z,100048.34
2023-09-23T07:22:53.234Z,100040.16
2023-09-23T07:25:56.112Z,100029.88
2023-09-23T07:28:58.913Z,100033.13
2023-09-23T07:32:01.910Z,100030.84
2023-09-23T07:35:05.353Z,100033.50
2023-09-23T07:38:08.172Z,100025.69
2023-09-23T07:41:11.013Z,100029.00
2023-09-23T07:44:13.732Z,100018.72
2023-09-23T07:47:16.888Z,100011.06
2023-09-23T07:50:19.711Z,99996.56
2023-09-23T07:53:23.507Z,99990.72
2023-09-23T07:56:26.537Z,99997.50
2023-09-23T07:59:29.300Z,100004.72
2023-09-23T08:02:33.678Z,100013.72
2023-09-23T08:05:36.575Z,100009.00
2023-09-23T08:08:39.325Z,100003.44
2023-09-23T08:11:42.080Z,100005.97
2023-09-23T08:14:44.999Z,100010.44
2023-09-23T08:17:47.820Z,100016.72
2023-09-23T08:20:59.494Z,100016.63
2023-09-23T08:24:02.231Z,100010.81
2023-09-23T08:27:06.221Z,100018.84
2023-09-23T08:30:11.505Z,100037.09
2023-09-23T08:33:14.338Z,100046.78
2023-09-23T08:36:17.131Z,100047.59
2023-09-23T08:39:20.530Z,100042.59
2023-09-23T08:42:25.729Z,100049.22
2023-09-23T08:45:29.713Z,100050.34
2023-09-23T08:48:33.256Z,100055.25
2023-09-23T08:51:36.272Z,100057.75
2023-09-23T08:54:39.378Z,100064.47
2023-09-23T08:57:42.299Z,100061.06
2023-09-23T09:00:48.291Z,100070.41
2023-09-23T09:03:52.130Z,100071.88
2023-09-23T09:06:56.288Z,100074.37
2023-09-23T09:09:59.454Z,100078.06
2023-09-23T09:13:04.383Z,100077.72
2023-09-23T09:16:08.055Z,100093.50
2023-09-23T09:19:11.276Z,100102.50
2023-09-23T09:22:16.484Z,100098.66
2023-09-23T09:25:22.434Z,100102.88
2023-09-23T09:28:25.304Z,100095.31
2023-09-23T09:31:34.182Z,100104.34
2023-09-23T09:34:47.290Z,100100.03
2023-09-23T09:37:55.421Z,100107.97
2023-09-23T09:41:05.865Z,100109.56
2023-09-23T09:44:09.004Z,100109.31
2023-09-23T09:47:12.432Z,100110.88
2023-09-23T09:50:15.980Z,100117.84
2023-09-23T09:53:19.936Z,100109.09
2023-09-23T09:56:23.062Z,100119.75
2023-09-23T09:59:31.692Z,100126.47
2023-09-23T10:02:34.819Z,100130.97
2023-09-23T10:05:48.498Z,100136.22
2023-09-23T10:08:52.961Z,100131.69
2023-09-23T10:11:57.499Z,100131.91
2023-09-23T10:15:03.237Z,100140.25
2023-09-23T10:18:16.225Z,100139.22
2023-09-23T10:21:23.705Z,100157.12
2023-09-23T10:24:30.216Z,100155.66
2023-09-23T10:27:33.755Z,100162.66
2023-09-23T10:30:36.957Z,100170.59
2023-09-23T10:33:39.970Z,100172.28
2023-09-23T10:36:42.683Z,100160.75
2023-09-23T10:39:46.051Z,100162.16
2023-09-23T10:42:50.432Z,100162.97
2023-09-23T10:45:54.717Z,100175.72
2023-09-23T10:48:57.618Z,100190.59
2023-09-23T10:52:00.371Z,100187.75
2023-09-23T10:55:04.267Z,100181.03
2023-09-23T10:58:10.709Z,100181.56
2023-09-23T11:01:13.753Z,100172.37
2023-09-23T11:04:18.131Z,100165.81
2023-09-23T11:07:21.961Z,100173.16
2023-09-23T11:10:27.603Z,100170.62
2023-09-23T11:13:34.599Z,100174.47
2023-09-23T11:16:37.402Z,100173.94
2023-09-23T11:19:40.105Z,100173.41
2023-09-23T11:22:45.353Z,100170.00
2023-09-23T11:25:48.566Z,100180.97
2023-09-23T11:28:51.811Z,100183.47
2023-09-23T11:31:54.614Z,100183.56
2023-09-23T11:34:58.426Z,100184.84
2023-09-23T11:38:01.273Z,100186.31
2023-09-23T11:41:05.643Z,100203.09
2023-09-23T11:44:08.479Z,100209.47
2023-09-23T11:47:14.028Z,100208.00
2023-09-23T11:50:17.415Z,100194.97
2023-09-23T11:53:20.467Z,100196.50
2023-09-23T11:56:23.292Z,100203.69
2023-09-23T11:59:26.150Z,100193.56
2023-09-23T12:02:29.010Z,100175.47
2023-09-23T12:05:32.311Z,100183.47
2023-09-23T12:08:35.332Z,100185.22
2023-09-23T12:11:38.572Z,100180.81
2023-09-23T12:14:44.392Z,100188.63
2023-09-23T12:17:47.153Z,100206.63
2023-09-23T12:20:52.045Z,100216.63
2023-09-23T12:24:00.633Z,100216.72
2023-09-23T12:27:03.572Z,100214.53
2023-09-23T12:30:07.039Z,100216.22
2023-09-23T12:33:13.313Z,100208.19
2023-09-23T12:36:16.603Z,100208.09
2023-09-23T12:39:19.389Z,100210.06
2023-09-23T12:42:22.291Z,100203.84
2023-09-23T12:45:25.113Z,100206.66
2023-09-23T12:48:29.384Z,100209.66
2023-09-23T12:51:32.271Z,100202.34
2023-09-23T12:54:35.693Z,100202.06
2023-09-23T12:57:38.867Z,100198.00
2023-09-23T13:00:43.062Z,100197.41
2023-09-23T13:03:46.048Z,100207.44
2023-09-23T13:06:48.881Z,100227.28
2023-09-23T13:09:51.569Z,100224.81
2023-09-23T13:12:54.261Z,100218.66
2023-09-23T13:15:57.297Z,100224.38
2023-09-23T13:19:02.135Z,100231.22
2023-09-23T13:22:06.360Z,100243.72
2023-09-23T13:25:09.541Z,100246.22
2023-09-23T13:28:12.368Z,100255.75
2023-09-23T13:31:15.192Z,100250.25
2023-09-23T13:34:18.193Z,100245.62
2023-09-23T13:37:21.229Z,100239.75
2023-09-23T13:40:24.022Z,100244.47
2023-09-23T13:43:26.785Z,100247.28
2023-09-23T13:46:29.808Z,100257.94
2023-09-23T13:49:32.586Z,100264.59
2023-09-23T13:52:35.632Z,100255.81
2023-09-23T13:55:38.574Z,100250.34
2023-09-23T13:58:41.331Z,100249.56
2023-09-23T14:01:44.051Z,100243.00
2023-09-23T14:04:46.874Z,100247.69
2023-09-23T14:07:49.614Z,100245.84
2023-09-23T14:10:52.344Z,100235.84
2023-09-23T14:13:55.049Z,100223.47
2023-09-23T14:16:57.830Z,100226.75
2023-09-23T14:20:04.986Z,100235.34
2023-09-23T14:23:09.760Z,100221.62
2023-09-23T14:26:12.659Z,100229.28
2023-09-23T14:29:15.437Z,100244.25
2023-09-23T14:32:18.367Z,100237.16
2023-09-23T14:35:21.624Z,100230.59
2023-09-23T14:38:24.945Z,100234.41
2023-09-23T14:41:27.798Z,100234.16
2023-09-23T14:44:30.619Z,100234.84
2023-09-23T14:47:33.683Z,100233.22
2023-09-23T14:50:37.797Z,100236.56
2023-09-23T14:53:40.606Z,100235.66
2023-09-23T14:56:43.534Z,100241.25
2023-09-23T14:59:46.486Z,100239.25
2023-09-23T15:02:49.537Z,100243.78
2023-09-23T15:05:52.256Z,100242.00
2023-09-23T15:09:01.046Z,100238.97
2023-09-23T15:12:04.742Z,100236.31
2023-09-23T15:15:10.833Z,100240.47
2023-09-23T15:18:13.837Z,100239.28
2023-09-23T15:21:16.675Z,100233.31
2023-09-23T15:24:19.503Z,100242.22
2023-09-23T15:27:23.855Z,100251.28
2023-09-23T15:30:26.552Z,100253.84
2023-09-23T15:33:29.415Z,100259.62
2023-09-23T15:36:32.549Z,100270.16
2023-09-23T15:39:36.967Z,100274.09
2023-09-23T15:42:39.800Z,100275.22
2023-09-23T15:45:45.602Z,100276.25
2023-09-23T15:48:48.734Z,100272.75
2023-09-23T15:51:51.684Z,100268.47
2023-09-23T15:54:54.822Z,100269.72
2023-09-23T15:57:57.754Z,100269.34
2023-09-23T16:01:00.633Z,100264.69
2023-09-23T16:04:03.850Z,100267.56
2023-09-23T16:07:07.120Z,100268.66
2023-09-23T16:10:11.577Z,100266.44
2023-09-23T16:13:14.792Z,100276.31
2023-09-23T16:16:17.757Z,100273.72
2023-09-23T16:19:20.941Z,100269.03
2023-09-23T16:22:23.656Z,100279.53
2023-09-23T16:25:26.527Z,100273.84
2023-09-23T16:28:29.415Z,100279.00
2023-09-23T16:31:32.285Z,100280.87
2023-09-23T16:34:35.311Z,100295.66
2023-09-23T16:37:38.060Z,100290.12
2023-09-23T16:40:40.852Z,100293.84
2023-09-23T16:43:43.613Z,100307.81
2023-09-23T16:46:47.851Z,100311.13
2023-09-23T16:49:50.896Z,100322.81
2023-09-23T16:52:54.571Z,100320.41
2023-09-23T16:55:57.426Z,100321.06
2023-09-23T16:59:00.426Z,100322.50
2023-09-23T17:02:03.368Z,100334.41
2023-09-23T17:05:06.413Z,100323.56
2023-09-23T17:08:09.385Z,100335.47
2023-09-23T17:11:12.208Z,100343.06
2023-09-23T17:14:15.075Z,100356.59
2023-09-23T17:17:17.994Z,100352.31
2023-09-23T17:20:20.789Z,100348.00
2023-09-23T17:23:24.682Z,100347.59
2023-09-23T17:26:27.679Z,100337.78
2023-09-23T17:29:30.993Z,100345.16
2023-09-23T17:32:34.986Z,100350.69
2023-09-23T17:35:38.078Z,100351.94
2023-09-23T17:38:41.214Z,100348.25
2023-09-23T17:41:44.405Z,100354.38
2023-09-23T17:44:48.486Z,100352.34
2023-09-23T17:47:51.991Z,100351.53
2023-09-23T17:50:57.392Z,100356.06
2023-09-23T17:54:00.201Z,100357.06
2023-09-23T17:57:03.179Z,100372.44
2023-09-23T18:00:08.014Z,100373.88
2023-09-23T18:03:11.648Z,100370.62
2023-09-23T18:06:16.728Z,100372.28
2023-09-23T18:09:19.698Z,100374.72
2023-09-23T18:12:23.295Z,100372.87
2023-09-23T18:15:26.327Z,100367.78
2023-09-23T18:18:30.159Z,100372.28
2023-09-23T18:21:33.684Z,100374.12
2023-09-23T18:24:36.729Z,100370.03
2023-09-23T18:27:39.529Z,100379.06
2023-09-23T18:30:42.456Z,100376.41
2023-09-23T18:33:45.381Z,100384.78
2023-09-23T18:36:48.763Z,100382.75
2023-09-23T18:39:52.531Z,100384.59
2023-09-23T18:42:56.212Z,100389.31
2023-09-23T18:45:59.035Z,100386.81
2023-09-23T18:49:01.886Z,100390.50
2023-09-23T18:52:05.107Z,100382.28
2023-09-23T18:55:08.462Z,100373.50
2023-09-23T18:58:11.507Z,100373.69
2023-09-23T19:01:14.980Z,100370.00
2023-09-23T19:04:18.051Z,100367.97
2023-09-23T19:07:20.905Z,100372.06
2023-09-23T19:10:23.925Z,100374.12
2023-09-23T19:13:26.991Z,100384.34
2023-09-23T19:16:29.801Z,100387.41
2023-09-23T19:19:32.600Z,100389.06
2023-09-23T19:22:35.613Z,100406.66
2023-09-23T19:25:38.759Z,100403.59
2023-09-23T19:28:42.254Z,100400.13
2023-09-23T19:31:45.037Z,100404.62
2023-09-23T19:34:48.142Z,100404.62
2023-09-23T19:37:51.362Z,100413.63
2023-09-23T19:40:54.150Z,100417.09
2023-09-23T19:43:57.294Z,100420.37
2023-09-23T19:47:02.204Z,100418.53
2023-09-23T19:50:07.584Z,100432.66
2023-09-23T19:53:11.013Z,100431.62
2023-09-23T19:56:14.060Z,100435.53
2023-09-23T19:59:17.270Z,100444.31
2023-09-23T20:02:20.786Z,100433.06
2023-09-23T20:05:23.908Z,100442.06
2023-09-23T20:08:26.888Z,100438.38
2023-09-23T20:11:30.758Z,100442.47
2023-09-23T20:14:34.755Z,100455.78
2023-09-23T20:17:40.290Z,100461.91
2023-09-23T20:20:44.136Z,100466.84
2023-09-23T20:23:47.569Z,100470.53
2023-09-23T20:26:53.589Z,100463.56
2023-09-23T20:30:06.434Z,100472.56
2023-09-23T20:33:11.524Z,100478.09
2023-09-23T20:36:15.496Z,100478.50
2023-09-23T20:39:21.878Z,100479.53
2023-09-23T20:42:25.414Z,100482.59
2023-09-23T20:45:29.452Z,100468.69
2023-09-23T20:48:32.640Z,100462.34
2023-09-23T20:51:35.454Z,100459.66
2023-09-23T20:54:38.262Z,100455.97
2023-09-23T20:57:41.117Z,100446.38
2023-09-23T21:00:44.280Z,100454.97
2023-09-23T21:03:47.559Z,100442.22
2023-09-23T21:06:50.644Z,100449.38
2023-09-23T21:09:54.250Z,100453.47
2023-09-23T21:12:57.354Z,100454.91
2023-09-23T21:16:07.368Z,100442.22
2023-09-23T21:19:10.111Z,100445.47
2023-09-23T21:22:12.799Z,100436.69
2023-09-23T21:25:15.635Z,100433.84
2023-09-23T21:28:18.326Z,100432.81
2023-09-23T21:31:21.245Z,100436.50
2023-09-23T21:34:24.354Z,100436.91
2023-09-23T21:37:27.162Z,100441.59
2023-09-23T21:40:29.891Z,100432.19
2023-09-23T21:43:32.669Z,100442.22
2023-09-23T21:46:35.473Z,100448.97
2023-09-23T21:49:38.200Z,100450.19
2023-09-23T21:52:40.993Z,100461.44
2023-09-23T21:55:43.811Z,100456.72
2023-09-23T21:58:46.721Z,100466.56
2023-09-23T22:01:50.725Z,100472.47
2023-09-23T22:04:53.570Z,100461.84
2023-09-23T22:07:57.330Z,100455.09
2023-09-23T22:11:00.495Z,100453.87
2023-09-23T22:14:07.863Z,100439.16
2023-09-23T22:17:10.758Z,100437.31
2023-09-23T22:20:16.923Z,100435.66
2023-09-23T22:23:19.723Z,100432.59
2023-09-23T22:26:22.447Z,100419.09
2023-09-23T22:29:26.196Z,100415.22
2023-09-23T22:32:29.915Z,100414.81
2023-09-23T22:35:33.739Z,100397.63
2023-09-23T22:38:37.213Z,100397.03
2023-09-23T22:41:40.845Z,100393.13
2023-09-23T22:44:44.512Z,100388.63
2023-09-23T22:47:49.197Z,100383.72
2023-09-23T22:50:53.455Z,100373.09
2023-09-23T22:53:57.380Z,100371.66
2023-09-23T22:57:00.168Z,100380.66
2023-09-23T23:00:03.820Z,100398.25
2023-09-23T23:03:09.378Z,100410.09
2023-09-23T23:06:12.486Z,100422.38
2023-09-23T23:09:15.774Z,100439.34
2023-09-23T23:12:18.477Z,100453.03
2023-09-23T23:15:21.698Z,100463.84
2023-09-23T23:18:25.235Z,100464.88
2023-09-23T23:21:28.080Z,100462.22
2023-09-23T23:24:30.757Z,100447.69
2023-09-23T23:27:33.739Z,100452.81
2023-09-23T23:30:37.529Z,100461.81
2023-09-23T23:33:40.374Z,100465.28
2023-09-23T23:36:45.219Z,100473.03
2023-09-23T23:39:48.492Z,100470.78
2023-09-23T23:42:51.340Z,100471.78
2023-09-23T23:46:00.339Z,100457.25
2023-09-23T23:49:04.599Z,100466.03
2023-09-23T23:52:11.005Z,100477.47
2023-09-23T23:55:14.128Z,100471.94
2023-09-23T23:58:16.783Z,100473.16
